sensor_id;sensor_type;location;lat;lon;timestamp;P1;durP1;ratioP1;P2;durP2;ratioP2
56331;SDS011;42237;53.340;6.812;2022-12-01T00:00:37;148.10;;;57.97;;
56331;SDS011;42237;53.340;6.812;2022-12-01T00:03:03;148.45;;;59.15;;
56331;SDS011;42237;53.340;6.812;2022-12-01T00:05:29;136.93;;;56.83;;
56331;SDS011;42237;53.340;6.812;2022-12-01T00:07:54;129.70;;;56.53;;
56331;SDS011;42237;53.340;6.812;2022-12-01T00:10:21;136.38;;;57.97;;
56331;SDS011;42237;53.340;6.812;2022-12-01T00:12:51;140.73;;;59.92;;
56331;SDS011;42237;53.340;6.812;2022-12-01T00:15:17;137.18;;;58.03;;
56331;SDS011;42237;53.340;6.812;2022-12-01T00:17:43;129.30;;;56.35;;
56331;SDS011;42237;53.340;6.812;2022-12-01T00:20:10;133.13;;;57.45;;
56331;SDS011;42237;53.340;6.812;2022-12-01T00:22:36;135.60;;;58.25;;
56331;SDS011;42237;53.340;6.812;2022-12-01T00:25:02;133.65;;;57.65;;
56331;SDS011;42237;53.340;6.812;2022-12-01T00:27:28;128.77;;;56.67;;
56331;SDS011;42237;53.340;6.812;2022-12-01T00:29:54;136.27;;;58.92;;
56331;SDS011;42237;53.340;6.812;2022-12-01T00:32:20;134.50;;;58.08;;
56331;SDS011;42237;53.340;6.812;2022-12-01T00:34:45;141.27;;;56.10;;
56331;SDS011;42237;53.340;6.812;2022-12-01T00:37:11;140.75;;;59.00;;
56331;SDS011;42237;53.340;6.812;2022-12-01T00:39:36;123.90;;;55.65;;
56331;SDS011;42237;53.340;6.812;2022-12-01T00:42:02;123.93;;;56.70;;
56331;SDS011;42237;53.340;6.812;2022-12-01T00:44:28;130.82;;;54.90;;
56331;SDS011;42237;53.340;6.812;2022-12-01T00:46:54;140.70;;;58.63;;
56331;SDS011;42237;53.340;6.812;2022-12-01T00:49:19;131.73;;;56.53;;
56331;SDS011;42237;53.340;6.812;2022-12-01T00:51:45;134.52;;;57.95;;
56331;SDS011;42237;53.340;6.812;2022-12-01T00:54:11;125.55;;;58.03;;
56331;SDS011;42237;53.340;6.812;2022-12-01T00:56:36;142.82;;;61.40;;
56331;SDS011;42237;53.340;6.812;2022-12-01T00:59:02;141.55;;;60.75;;
56331;SDS011;42237;53.340;6.812;2022-12-01T01:01:28;132.50;;;58.72;;
56331;SDS011;42237;53.340;6.812;2022-12-01T01:03:53;137.73;;;58.83;;
56331;SDS011;42237;53.340;6.812;2022-12-01T01:06:19;143.55;;;59.58;;
56331;SDS011;42237;53.340;6.812;2022-12-01T01:08:45;135.55;;;61.45;;
56331;SDS011;42237;53.340;6.812;2022-12-01T01:11:10;134.70;;;56.58;;
56331;SDS011;42237;53.340;6.812;2022-12-01T01:13:36;136.27;;;58.92;;
56331;SDS011;42237;53.340;6.812;2022-12-01T01:16:03;148.82;;;61.22;;
56331;SDS011;42237;53.340;6.812;2022-12-01T01:18:32;140.48;;;58.97;;
56331;SDS011;42237;53.340;6.812;2022-12-01T01:20:59;135.98;;;59.55;;
56331;SDS011;42237;53.340;6.812;2022-12-01T01:23:27;154.65;;;60.92;;
56331;SDS011;42237;53.340;6.812;2022-12-01T01:25:59;151.48;;;62.65;;
56331;SDS011;42237;53.340;6.812;2022-12-01T01:28:26;147.10;;;59.97;;
56331;SDS011;42237;53.340;6.812;2022-12-01T01:30:51;132.65;;;56.60;;
56331;SDS011;42237;53.340;6.812;2022-12-01T01:33:17;136.80;;;57.65;;
56331;SDS011;42237;53.340;6.812;2022-12-01T01:35:43;134.63;;;59.53;;
56331;SDS011;42237;53.340;6.812;2022-12-01T01:38:08;141.23;;;57.65;;
56331;SDS011;42237;53.340;6.812;2022-12-01T01:40:45;135.50;;;58.30;;
56331;SDS011;42237;53.340;6.812;2022-12-01T01:43:13;150.13;;;60.17;;
56331;SDS011;42237;53.340;6.812;2022-12-01T01:45:40;136.45;;;58.47;;
56331;SDS011;42237;53.340;6.812;2022-12-01T01:48:06;139.05;;;59.00;;
56331;SDS011;42237;53.340;6.812;2022-12-01T01:50:33;128.50;;;56.05;;
56331;SDS011;42237;53.340;6.812;2022-12-01T01:53:03;145.23;;;61.10;;
56331;SDS011;42237;53.340;6.812;2022-12-01T01:55:36;130.38;;;55.60;;
56331;SDS011;42237;53.340;6.812;2022-12-01T01:58:04;143.80;;;58.03;;
56331;SDS011;42237;53.340;6.812;2022-12-01T02:00:33;140.80;;;58.47;;
56331;SDS011;42237;53.340;6.812;2022-12-01T02:02:59;132.23;;;58.08;;
56331;SDS011;42237;53.340;6.812;2022-12-01T02:05:27;157.70;;;59.38;;
56331;SDS011;42237;53.340;6.812;2022-12-01T02:07:56;147.45;;;60.58;;
56331;SDS011;42237;53.340;6.812;2022-12-01T02:10:27;152.05;;;63.17;;
56331;SDS011;42237;53.340;6.812;2022-12-01T02:18:36;157.57;;;60.10;;
56331;SDS011;42237;53.340;6.812;2022-12-01T02:21:36;145.18;;;59.25;;
56331;SDS011;42237;53.340;6.812;2022-12-01T02:24:38;154.43;;;61.10;;
56331;SDS011;42237;53.340;6.812;2022-12-01T02:27:52;142.20;;;57.95;;
56331;SDS011;42237;53.340;6.812;2022-12-01T02:30:10;141.43;;;60.90;;
56331;SDS011;42237;53.340;6.812;2022-12-01T02:35:36;150.32;;;60.58;;
56331;SDS011;42237;53.340;6.812;2022-12-01T02:40:51;140.77;;;60.10;;
56331;SDS011;42237;53.340;6.812;2022-12-01T02:43:26;151.63;;;59.00;;
56331;SDS011;42237;53.340;6.812;2022-12-01T02:46:10;146.57;;;60.13;;
56331;SDS011;42237;53.340;6.812;2022-12-01T02:48:54;142.82;;;60.15;;
56331;SDS011;42237;53.340;6.812;2022-12-01T02:51:26;134.27;;;60.92;;
56331;SDS011;42237;53.340;6.812;2022-12-01T02:53:58;144.73;;;60.20;;
56331;SDS011;42237;53.340;6.812;2022-12-01T02:56:26;138.25;;;58.38;;
56331;SDS011;42237;53.340;6.812;2022-12-01T02:58:52;146.65;;;58.17;;
56331;SDS011;42237;53.340;6.812;2022-12-01T03:17:18;140.10;;;59.95;;
56331;SDS011;42237;53.340;6.812;2022-12-01T03:19:51;132.85;;;58.20;;
56331;SDS011;42237;53.340;6.812;2022-12-01T03:22:43;135.70;;;55.88;;
56331;SDS011;42237;53.340;6.812;2022-12-01T03:25:15;137.10;;;56.20;;
56331;SDS011;42237;53.340;6.812;2022-12-01T03:27:42;131.93;;;56.00;;
56331;SDS011;42237;53.340;6.812;2022-12-01T03:30:10;142.82;;;58.45;;
56331;SDS011;42237;53.340;6.812;2022-12-01T03:32:40;141.38;;;56.78;;
56331;SDS011;42237;53.340;6.812;2022-12-01T03:35:12;140.85;;;58.10;;
56331;SDS011;42237;53.340;6.812;2022-12-01T03:37:47;146.10;;;58.25;;
56331;SDS011;42237;53.340;6.812;2022-12-01T03:40:18;146.18;;;60.00;;
56331;SDS011;42237;53.340;6.812;2022-12-01T03:42:58;135.32;;;57.42;;
56331;SDS011;42237;53.340;6.812;2022-12-01T03:45:40;134.85;;;54.00;;
56331;SDS011;42237;53.340;6.812;2022-12-01T03:48:19;123.45;;;51.83;;
56331;SDS011;42237;53.340;6.812;2022-12-01T03:53:54;121.75;;;51.35;;
56331;SDS011;42237;53.340;6.812;2022-12-01T03:56:23;106.63;;;50.10;;
56331;SDS011;42237;53.340;6.812;2022-12-01T03:58:51;117.53;;;50.40;;
56331;SDS011;42237;53.340;6.812;2022-12-01T04:01:21;117.57;;;48.88;;
56331;SDS011;42237;53.340;6.812;2022-12-01T04:03:47;115.85;;;49.78;;
56331;SDS011;42237;53.340;6.812;2022-12-01T04:06:13;111.40;;;50.22;;
56331;SDS011;42237;53.340;6.812;2022-12-01T04:08:39;114.38;;;48.42;;
56331;SDS011;42237;53.340;6.812;2022-12-01T04:11:05;113.05;;;48.83;;
56331;SDS011;42237;53.340;6.812;2022-12-01T04:13:50;110.70;;;50.25;;
56331;SDS011;42237;53.340;6.812;2022-12-01T04:16:16;110.22;;;49.72;;
56331;SDS011;42237;53.340;6.812;2022-12-01T04:18:42;114.43;;;50.03;;
56331;SDS011;42237;53.340;6.812;2022-12-01T04:21:08;109.70;;;49.63;;
56331;SDS011;42237;53.340;6.812;2022-12-01T04:23:33;122.78;;;49.85;;
56331;SDS011;42237;53.340;6.812;2022-12-01T04:26:17;114.03;;;49.03;;
56331;SDS011;42237;53.340;6.812;2022-12-01T04:28:43;106.07;;;48.42;;
56331;SDS011;42237;53.340;6.812;2022-12-01T04:31:09;118.30;;;49.53;;
56331;SDS011;42237;53.340;6.812;2022-12-01T04:33:35;111.00;;;47.92;;
56331;SDS011;42237;53.340;6.812;2022-12-01T04:36:00;107.03;;;47.78;;
56331;SDS011;42237;53.340;6.812;2022-12-01T04:38:26;94.53;;;45.35;;
56331;SDS011;42237;53.340;6.812;2022-12-01T04:40:52;107.45;;;48.75;;
56331;SDS011;42237;53.340;6.812;2022-12-01T04:43:18;109.45;;;50.13;;
56331;SDS011;42237;53.340;6.812;2022-12-01T04:45:44;102.57;;;47.33;;
56331;SDS011;42237;53.340;6.812;2022-12-01T04:48:09;104.63;;;47.92;;
56331;SDS011;42237;53.340;6.812;2022-12-01T04:50:36;115.55;;;48.15;;
56331;SDS011;42237;53.340;6.812;2022-12-01T04:53:02;109.68;;;46.95;;
56331;SDS011;42237;53.340;6.812;2022-12-01T04:55:28;111.25;;;49.05;;
56331;SDS011;42237;53.340;6.812;2022-12-01T04:57:54;103.13;;;45.03;;
56331;SDS011;42237;53.340;6.812;2022-12-01T05:00:20;109.45;;;46.25;;
56331;SDS011;42237;53.340;6.812;2022-12-01T05:02:45;100.88;;;45.47;;
56331;SDS011;42237;53.340;6.812;2022-12-01T05:05:11;116.43;;;48.05;;
56331;SDS011;42237;53.340;6.812;2022-12-01T05:07:38;98.85;;;43.15;;
56331;SDS011;42237;53.340;6.812;2022-12-01T05:10:04;107.47;;;45.25;;
56331;SDS011;42237;53.340;6.812;2022-12-01T05:12:31;94.43;;;43.55;;
56331;SDS011;42237;53.340;6.812;2022-12-01T05:14:56;96.82;;;43.72;;
56331;SDS011;42237;53.340;6.812;2022-12-01T05:17:22;94.97;;;43.78;;
56331;SDS011;42237;53.340;6.812;2022-12-01T05:19:48;101.38;;;44.78;;
56331;SDS011;42237;53.340;6.812;2022-12-01T05:22:32;100.00;;;44.05;;
56331;SDS011;42237;53.340;6.812;2022-12-01T05:24:57;90.68;;;42.67;;
56331;SDS011;42237;53.340;6.812;2022-12-01T05:27:26;85.70;;;42.10;;
56331;SDS011;42237;53.340;6.812;2022-12-01T05:29:51;94.90;;;42.28;;
56331;SDS011;42237;53.340;6.812;2022-12-01T05:32:17;86.50;;;42.50;;
56331;SDS011;42237;53.340;6.812;2022-12-01T05:34:43;84.72;;;40.67;;
56331;SDS011;42237;53.340;6.812;2022-12-01T05:37:08;92.28;;;40.28;;
56331;SDS011;42237;53.340;6.812;2022-12-01T05:39:34;85.20;;;41.67;;
56331;SDS011;42237;53.340;6.812;2022-12-01T05:42:00;85.53;;;39.25;;
56331;SDS011;42237;53.340;6.812;2022-12-01T05:44:25;78.00;;;38.67;;
56331;SDS011;42237;53.340;6.812;2022-12-01T05:46:51;93.72;;;40.50;;
56331;SDS011;42237;53.340;6.812;2022-12-01T05:49:17;77.38;;;39.67;;
56331;SDS011;42237;53.340;6.812;2022-12-01T05:51:42;83.22;;;39.50;;
56331;SDS011;42237;53.340;6.812;2022-12-01T05:54:08;94.57;;;39.78;;
56331;SDS011;42237;53.340;6.812;2022-12-01T05:56:34;81.03;;;38.58;;
56331;SDS011;42237;53.340;6.812;2022-12-01T05:58:59;78.35;;;36.53;;
56331;SDS011;42237;53.340;6.812;2022-12-01T06:01:25;80.60;;;38.25;;
56331;SDS011;42237;53.340;6.812;2022-12-01T06:03:51;85.05;;;37.63;;
56331;SDS011;42237;53.340;6.812;2022-12-01T06:06:17;76.57;;;36.05;;
56331;SDS011;42237;53.340;6.812;2022-12-01T06:08:43;65.22;;;34.78;;
56331;SDS011;42237;53.340;6.812;2022-12-01T06:11:08;74.22;;;33.83;;
56331;SDS011;42237;53.340;6.812;2022-12-01T06:13:34;65.72;;;32.85;;
56331;SDS011;42237;53.340;6.812;2022-12-01T06:16:01;68.22;;;34.78;;
56331;SDS011;42237;53.340;6.812;2022-12-01T06:18:29;61.92;;;31.15;;
56331;SDS011;42237;53.340;6.812;2022-12-01T06:20:57;64.47;;;31.90;;
56331;SDS011;42237;53.340;6.812;2022-12-01T06:23:23;55.28;;;30.48;;
56331;SDS011;42237;53.340;6.812;2022-12-01T06:25:48;58.50;;;30.67;;
56331;SDS011;42237;53.340;6.812;2022-12-01T06:28:14;57.17;;;30.30;;
56331;SDS011;42237;53.340;6.812;2022-12-01T06:30:41;58.83;;;29.85;;
56331;SDS011;42237;53.340;6.812;2022-12-01T06:33:07;52.67;;;29.50;;
56331;SDS011;42237;53.340;6.812;2022-12-01T06:35:33;49.85;;;27.60;;
56331;SDS011;42237;53.340;6.812;2022-12-01T06:37:59;49.78;;;28.45;;
56331;SDS011;42237;53.340;6.812;2022-12-01T06:40:25;53.40;;;29.50;;
56331;SDS011;42237;53.340;6.812;2022-12-01T06:42:51;51.38;;;27.75;;
56331;SDS011;42237;53.340;6.812;2022-12-01T06:45:17;53.92;;;29.52;;
56331;SDS011;42237;53.340;6.812;2022-12-01T06:47:43;54.30;;;29.67;;
56331;SDS011;42237;53.340;6.812;2022-12-01T06:50:09;50.53;;;28.83;;
56331;SDS011;42237;53.340;6.812;2022-12-01T06:52:36;50.63;;;28.42;;
56331;SDS011;42237;53.340;6.812;2022-12-01T06:55:02;53.22;;;29.05;;
56331;SDS011;42237;53.340;6.812;2022-12-01T06:57:29;54.92;;;29.73;;
56331;SDS011;42237;53.340;6.812;2022-12-01T06:59:55;60.63;;;28.77;;
56331;SDS011;42237;53.340;6.812;2022-12-01T07:02:21;50.15;;;29.23;;
56331;SDS011;42237;53.340;6.812;2022-12-01T07:04:46;51.50;;;27.27;;
56331;SDS011;42237;53.340;6.812;2022-12-01T07:07:12;48.20;;;27.02;;
56331;SDS011;42237;53.340;6.812;2022-12-01T07:09:38;48.97;;;26.98;;
56331;SDS011;42237;53.340;6.812;2022-12-01T07:12:04;44.35;;;25.40;;
56331;SDS011;42237;53.340;6.812;2022-12-01T07:14:30;45.47;;;25.95;;
56331;SDS011;42237;53.340;6.812;2022-12-01T07:16:57;45.00;;;25.67;;
56331;SDS011;42237;53.340;6.812;2022-12-01T07:19:22;44.13;;;23.65;;
56331;SDS011;42237;53.340;6.812;2022-12-01T07:21:48;46.85;;;27.08;;
56331;SDS011;42237;53.340;6.812;2022-12-01T07:24:14;47.90;;;26.27;;
56331;SDS011;42237;53.340;6.812;2022-12-01T07:26:40;47.58;;;26.98;;
56331;SDS011;42237;53.340;6.812;2022-12-01T07:29:07;52.05;;;28.58;;
56331;SDS011;42237;53.340;6.812;2022-12-01T07:31:33;42.80;;;26.15;;
56331;SDS011;42237;53.340;6.812;2022-12-01T07:33:59;42.78;;;26.45;;
56331;SDS011;42237;53.340;6.812;2022-12-01T07:36:24;43.83;;;25.00;;
56331;SDS011;42237;53.340;6.812;2022-12-01T07:38:50;46.78;;;26.92;;
56331;SDS011;42237;53.340;6.812;2022-12-01T07:41:16;45.78;;;26.35;;
56331;SDS011;42237;53.340;6.812;2022-12-01T07:43:44;44.13;;;24.45;;
56331;SDS011;42237;53.340;6.812;2022-12-01T07:46:12;43.97;;;25.48;;
56331;SDS011;42237;53.340;6.812;2022-12-01T07:48:42;49.30;;;26.73;;
56331;SDS011;42237;53.340;6.812;2022-12-01T07:51:09;54.78;;;28.13;;
56331;SDS011;42237;53.340;6.812;2022-12-01T07:53:36;47.60;;;26.38;;
56331;SDS011;42237;53.340;6.812;2022-12-01T07:56:03;54.38;;;29.17;;
56331;SDS011;42237;53.340;6.812;2022-12-01T07:58:29;53.80;;;28.33;;
56331;SDS011;42237;53.340;6.812;2022-12-01T08:00:55;51.17;;;28.02;;
56331;SDS011;42237;53.340;6.812;2022-12-01T08:03:22;54.88;;;28.52;;
56331;SDS011;42237;53.340;6.812;2022-12-01T08:05:55;61.60;;;29.70;;
56331;SDS011;42237;53.340;6.812;2022-12-01T08:08:25;43.22;;;24.58;;
56331;SDS011;42237;53.340;6.812;2022-12-01T08:10:51;61.58;;;27.58;;
56331;SDS011;42237;53.340;6.812;2022-12-01T08:13:17;49.53;;;25.40;;
56331;SDS011;42237;53.340;6.812;2022-12-01T08:15:43;42.60;;;24.58;;
56331;SDS011;42237;53.340;6.812;2022-12-01T08:18:09;62.58;;;27.38;;
56331;SDS011;42237;53.340;6.812;2022-12-01T08:20:35;47.33;;;25.42;;
56331;SDS011;42237;53.340;6.812;2022-12-01T08:23:00;50.40;;;26.98;;
56331;SDS011;42237;53.340;6.812;2022-12-01T08:25:27;53.92;;;28.52;;
56331;SDS011;42237;53.340;6.812;2022-12-01T08:27:53;48.90;;;27.77;;
56331;SDS011;42237;53.340;6.812;2022-12-01T08:30:19;51.78;;;27.55;;
56331;SDS011;42237;53.340;6.812;2022-12-01T08:32:45;53.08;;;28.77;;
56331;SDS011;42237;53.340;6.812;2022-12-01T08:35:11;60.78;;;28.60;;
56331;SDS011;42237;53.340;6.812;2022-12-01T08:37:36;63.60;;;29.92;;
56331;SDS011;42237;53.340;6.812;2022-12-01T08:40:02;64.80;;;31.13;;
56331;SDS011;42237;53.340;6.812;2022-12-01T08:42:28;65.18;;;31.92;;
56331;SDS011;42237;53.340;6.812;2022-12-01T08:44:54;71.32;;;34.45;;
56331;SDS011;42237;53.340;6.812;2022-12-01T08:47:20;63.22;;;32.97;;
56331;SDS011;42237;53.340;6.812;2022-12-01T08:49:45;83.78;;;34.58;;
56331;SDS011;42237;53.340;6.812;2022-12-01T08:52:11;76.22;;;33.65;;
56331;SDS011;42237;53.340;6.812;2022-12-01T08:54:37;78.53;;;34.88;;
56331;SDS011;42237;53.340;6.812;2022-12-01T08:57:02;66.30;;;32.65;;
56331;SDS011;42237;53.340;6.812;2022-12-01T08:59:28;87.28;;;36.50;;
56331;SDS011;42237;53.340;6.812;2022-12-01T09:01:53;63.95;;;31.00;;
56331;SDS011;42237;53.340;6.812;2022-12-01T09:04:24;60.90;;;33.17;;
56331;SDS011;42237;53.340;6.812;2022-12-01T09:06:52;59.20;;;31.15;;
56331;SDS011;42237;53.340;6.812;2022-12-01T09:09:20;70.85;;;36.55;;
56331;SDS011;42237;53.340;6.812;2022-12-01T09:11:47;70.05;;;34.50;;
56331;SDS011;42237;53.340;6.812;2022-12-01T09:14:16;84.07;;;37.58;;
56331;SDS011;42237;53.340;6.812;2022-12-01T09:16:43;74.40;;;34.97;;
56331;SDS011;42237;53.340;6.812;2022-12-01T09:19:10;59.72;;;32.40;;
56331;SDS011;42237;53.340;6.812;2022-12-01T09:21:36;67.35;;;34.35;;
56331;SDS011;42237;53.340;6.812;2022-12-01T09:24:03;83.72;;;37.78;;
56331;SDS011;42237;53.340;6.812;2022-12-01T09:26:30;75.22;;;37.95;;
56331;SDS011;42237;53.340;6.812;2022-12-01T09:28:57;82.05;;;39.03;;
56331;SDS011;42237;53.340;6.812;2022-12-01T09:31:27;102.95;;;43.88;;
56331;SDS011;42237;53.340;6.812;2022-12-01T09:33:55;91.75;;;41.75;;
56331;SDS011;42237;53.340;6.812;2022-12-01T09:36:22;83.28;;;38.92;;
56331;SDS011;42237;53.340;6.812;2022-12-01T09:38:48;82.45;;;38.63;;
56331;SDS011;42237;53.340;6.812;2022-12-01T09:41:25;89.75;;;39.00;;
56331;SDS011;42237;53.340;6.812;2022-12-01T09:43:58;80.63;;;37.65;;
56331;SDS011;42237;53.340;6.812;2022-12-01T09:47:38;83.85;;;36.47;;
56331;SDS011;42237;53.340;6.812;2022-12-01T09:52:18;63.70;;;31.55;;
56331;SDS011;42237;53.340;6.812;2022-12-01T09:54:45;85.78;;;36.35;;
56331;SDS011;42237;53.340;6.812;2022-12-01T09:59:57;70.82;;;33.55;;
56331;SDS011;42237;53.340;6.812;2022-12-01T10:02:29;62.95;;;31.40;;
56331;SDS011;42237;53.340;6.812;2022-12-01T10:04:59;74.65;;;35.33;;
56331;SDS011;42237;53.340;6.812;2022-12-01T10:10:12;73.43;;;35.70;;
56331;SDS011;42237;53.340;6.812;2022-12-01T10:12:41;96.88;;;41.28;;
56331;SDS011;42237;53.340;6.812;2022-12-01T10:15:14;97.78;;;42.05;;
56331;SDS011;42237;53.340;6.812;2022-12-01T10:18:13;106.22;;;44.70;;
56331;SDS011;42237;53.340;6.812;2022-12-01T10:20:52;113.53;;;48.03;;
56331;SDS011;42237;53.340;6.812;2022-12-01T10:31:49;99.32;;;45.47;;
56331;SDS011;42237;53.340;6.812;2022-12-01T10:36:54;103.38;;;46.13;;
56331;SDS011;42237;53.340;6.812;2022-12-01T10:42:14;100.15;;;44.25;;
56331;SDS011;42237;53.340;6.812;2022-12-01T10:44:53;98.32;;;43.85;;
56331;SDS011;42237;53.340;6.812;2022-12-01T10:47:23;96.55;;;43.10;;
56331;SDS011;42237;53.340;6.812;2022-12-01T10:49:50;99.45;;;44.45;;
56331;SDS011;42237;53.340;6.812;2022-12-01T10:52:38;97.30;;;45.38;;
56331;SDS011;42237;53.340;6.812;2022-12-01T10:58:21;93.50;;;43.53;;
56331;SDS011;42237;53.340;6.812;2022-12-01T11:00:57;91.82;;;40.72;;
56331;SDS011;42237;53.340;6.812;2022-12-01T11:03:30;92.93;;;42.78;;
56331;SDS011;42237;53.340;6.812;2022-12-01T11:06:00;97.70;;;45.47;;
56331;SDS011;42237;53.340;6.812;2022-12-01T11:08:45;86.00;;;40.75;;
56331;SDS011;42237;53.340;6.812;2022-12-01T11:11:22;95.32;;;44.45;;
56331;SDS011;42237;53.340;6.812;2022-12-01T11:14:20;90.38;;;43.08;;
56331;SDS011;42237;53.340;6.812;2022-12-01T11:16:53;91.72;;;42.05;;
56331;SDS011;42237;53.340;6.812;2022-12-01T11:21:57;95.40;;;43.80;;
56331;SDS011;42237;53.340;6.812;2022-12-01T11:27:16;92.15;;;43.83;;
56331;SDS011;42237;53.340;6.812;2022-12-01T11:29:47;92.28;;;41.30;;
56331;SDS011;42237;53.340;6.812;2022-12-01T11:33:00;78.45;;;42.47;;
56331;SDS011;42237;53.340;6.812;2022-12-01T11:35:34;76.68;;;37.88;;
56331;SDS011;42237;53.340;6.812;2022-12-01T11:38:02;79.03;;;38.00;;
56331;SDS011;42237;53.340;6.812;2022-12-01T11:40:30;71.43;;;37.17;;
56331;SDS011;42237;53.340;6.812;2022-12-01T11:43:02;73.53;;;37.80;;
56331;SDS011;42237;53.340;6.812;2022-12-01T11:45:33;71.38;;;37.38;;
56331;SDS011;42237;53.340;6.812;2022-12-01T11:50:40;72.45;;;36.78;;
56331;SDS011;42237;53.340;6.812;2022-12-01T11:53:25;70.63;;;37.33;;
56331;SDS011;42237;53.340;6.812;2022-12-01T11:59:02;72.18;;;37.17;;
56331;SDS011;42237;53.340;6.812;2022-12-01T12:23:35;69.63;;;36.60;;
56331;SDS011;42237;53.340;6.812;2022-12-01T12:26:24;64.78;;;36.03;;
56331;SDS011;42237;53.340;6.812;2022-12-01T12:50:39;66.47;;;37.45;;
56331;SDS011;42237;53.340;6.812;2022-12-01T12:53:11;73.03;;;38.40;;
56331;SDS011;42237;53.340;6.812;2022-12-01T13:01:03;68.57;;;38.15;;
56331;SDS011;42237;53.340;6.812;2022-12-01T13:09:01;67.38;;;37.88;;
56331;SDS011;42237;53.340;6.812;2022-12-01T13:11:43;69.18;;;38.13;;
56331;SDS011;42237;53.340;6.812;2022-12-01T13:17:03;70.05;;;38.50;;
56331;SDS011;42237;53.340;6.812;2022-12-01T13:19:49;75.05;;;40.38;;
56331;SDS011;42237;53.340;6.812;2022-12-01T13:22:15;72.63;;;40.15;;
56331;SDS011;42237;53.340;6.812;2022-12-01T13:24:45;75.57;;;39.83;;
56331;SDS011;42237;53.340;6.812;2022-12-01T13:29:37;74.53;;;39.97;;
56331;SDS011;42237;53.340;6.812;2022-12-01T13:32:09;75.63;;;41.72;;
56331;SDS011;42237;53.340;6.812;2022-12-01T13:34:58;75.40;;;39.60;;
56331;SDS011;42237;53.340;6.812;2022-12-01T13:37:27;75.00;;;40.20;;
56331;SDS011;42237;53.340;6.812;2022-12-01T13:40:08;77.45;;;39.45;;
56331;SDS011;42237;53.340;6.812;2022-12-01T13:42:51;80.55;;;42.75;;
56331;SDS011;42237;53.340;6.812;2022-12-01T13:45:33;80.13;;;42.75;;
56331;SDS011;42237;53.340;6.812;2022-12-01T13:48:01;79.35;;;43.55;;
56331;SDS011;42237;53.340;6.812;2022-12-01T13:56:23;88.65;;;46.38;;
56331;SDS011;42237;53.340;6.812;2022-12-01T13:58:40;88.90;;;47.17;;
56331;SDS011;42237;53.340;6.812;2022-12-01T14:03:58;90.18;;;49.00;;
56331;SDS011;42237;53.340;6.812;2022-12-01T14:12:03;99.05;;;50.00;;
56331;SDS011;42237;53.340;6.812;2022-12-01T14:14:39;104.65;;;50.85;;
56331;SDS011;42237;53.340;6.812;2022-12-01T14:17:22;111.97;;;53.40;;
56331;SDS011;42237;53.340;6.812;2022-12-01T14:22:38;99.80;;;51.35;;
56331;SDS011;42237;53.340;6.812;2022-12-01T14:27:47;105.10;;;53.22;;
56331;SDS011;42237;53.340;6.812;2022-12-01T14:36:20;111.13;;;51.53;;
56331;SDS011;42237;53.340;6.812;2022-12-01T14:38:53;103.22;;;52.83;;
56331;SDS011;42237;53.340;6.812;2022-12-01T14:43:52;100.60;;;50.38;;
56331;SDS011;42237;53.340;6.812;2022-12-01T14:46:48;100.32;;;50.00;;
56331;SDS011;42237;53.340;6.812;2022-12-01T14:49:24;100.10;;;50.55;;
56331;SDS011;42237;53.340;6.812;2022-12-01T14:51:56;102.15;;;51.35;;
56331;SDS011;42237;53.340;6.812;2022-12-01T14:54:29;98.95;;;50.85;;
56331;SDS011;42237;53.340;6.812;2022-12-01T14:56:59;94.75;;;49.65;;
56331;SDS011;42237;53.340;6.812;2022-12-01T14:59:28;93.60;;;49.10;;
56331;SDS011;42237;53.340;6.812;2022-12-01T15:01:55;105.20;;;52.13;;
56331;SDS011;42237;53.340;6.812;2022-12-01T15:04:28;103.07;;;50.05;;
56331;SDS011;42237;53.340;6.812;2022-12-01T15:06:54;94.25;;;50.33;;
56331;SDS011;42237;53.340;6.812;2022-12-01T15:09:21;95.15;;;49.08;;
56331;SDS011;42237;53.340;6.812;2022-12-01T15:11:49;104.03;;;49.97;;
56331;SDS011;42237;53.340;6.812;2022-12-01T15:16:51;100.80;;;51.50;;
56331;SDS011;42237;53.340;6.812;2022-12-01T15:19:36;102.18;;;50.40;;
56331;SDS011;42237;53.340;6.812;2022-12-01T15:22:13;100.00;;;51.22;;
56331;SDS011;42237;53.340;6.812;2022-12-01T15:24:41;102.15;;;51.42;;
56331;SDS011;42237;53.340;6.812;2022-12-01T15:27:29;96.47;;;50.03;;
56331;SDS011;42237;53.340;6.812;2022-12-01T15:29:56;99.32;;;50.58;;
56331;SDS011;42237;53.340;6.812;2022-12-01T15:32:27;102.22;;;51.13;;
56331;SDS011;42237;53.340;6.812;2022-12-01T15:34:55;90.95;;;50.15;;
56331;SDS011;42237;53.340;6.812;2022-12-01T15:37:26;101.63;;;51.80;;
56331;SDS011;42237;53.340;6.812;2022-12-01T15:39:59;93.65;;;47.47;;
56331;SDS011;42237;53.340;6.812;2022-12-01T15:42:35;83.43;;;46.33;;
56331;SDS011;42237;53.340;6.812;2022-12-01T15:45:19;77.35;;;44.28;;
56331;SDS011;42237;53.340;6.812;2022-12-01T15:47:50;78.70;;;44.50;;
56331;SDS011;42237;53.340;6.812;2022-12-01T15:52:54;81.30;;;43.15;;
56331;SDS011;42237;53.340;6.812;2022-12-01T15:55:24;85.25;;;45.25;;
56331;SDS011;42237;53.340;6.812;2022-12-01T15:57:51;82.35;;;43.92;;
56331;SDS011;42237;53.340;6.812;2022-12-01T16:00:18;83.20;;;44.45;;
56331;SDS011;42237;53.340;6.812;2022-12-01T16:02:47;82.60;;;43.17;;
56331;SDS011;42237;53.340;6.812;2022-12-01T16:05:30;79.72;;;42.40;;
56331;SDS011;42237;53.340;6.812;2022-12-01T16:07:58;81.53;;;42.47;;
56331;SDS011;42237;53.340;6.812;2022-12-01T16:10:38;76.03;;;41.55;;
56331;SDS011;42237;53.340;6.812;2022-12-01T16:21:47;74.78;;;40.17;;
56331;SDS011;42237;53.340;6.812;2022-12-01T16:24:22;74.97;;;41.60;;
56331;SDS011;42237;53.340;6.812;2022-12-01T16:27:00;74.07;;;41.10;;
56331;SDS011;42237;53.340;6.812;2022-12-01T16:34:57;79.18;;;42.40;;
56331;SDS011;42237;53.340;6.812;2022-12-01T16:37:23;79.45;;;42.38;;
56331;SDS011;42237;53.340;6.812;2022-12-01T16:42:38;78.68;;;41.38;;
56331;SDS011;42237;53.340;6.812;2022-12-01T16:45:04;84.90;;;43.72;;
56331;SDS011;42237;53.340;6.812;2022-12-01T16:47:31;81.55;;;42.40;;
56331;SDS011;42237;53.340;6.812;2022-12-01T16:49:57;77.65;;;42.10;;
56331;SDS011;42237;53.340;6.812;2022-12-01T16:52:23;85.53;;;44.13;;
56331;SDS011;42237;53.340;6.812;2022-12-01T16:54:48;82.53;;;44.67;;
56331;SDS011;42237;53.340;6.812;2022-12-01T16:57:14;85.97;;;44.53;;
56331;SDS011;42237;53.340;6.812;2022-12-01T16:59:43;86.75;;;44.95;;
56331;SDS011;42237;53.340;6.812;2022-12-01T17:02:09;94.07;;;44.80;;
56331;SDS011;42237;53.340;6.812;2022-12-01T17:04:38;86.38;;;45.75;;
56331;SDS011;42237;53.340;6.812;2022-12-01T17:07:03;78.78;;;43.15;;
56331;SDS011;42237;53.340;6.812;2022-12-01T17:09:29;84.25;;;43.25;;
56331;SDS011;42237;53.340;6.812;2022-12-01T17:11:55;85.85;;;44.88;;
56331;SDS011;42237;53.340;6.812;2022-12-01T17:14:24;86.60;;;44.25;;
56331;SDS011;42237;53.340;6.812;2022-12-01T17:16:50;87.75;;;44.90;;
56331;SDS011;42237;53.340;6.812;2022-12-01T17:19:15;85.47;;;44.88;;
56331;SDS011;42237;53.340;6.812;2022-12-01T17:21:41;85.88;;;45.28;;
56331;SDS011;42237;53.340;6.812;2022-12-01T17:24:07;83.25;;;43.03;;
56331;SDS011;42237;53.340;6.812;2022-12-01T17:26:33;88.47;;;44.00;;